createdAt,value
2022-12-15T00:00:36.495Z,12.93
2022-12-15T00:03:27.178Z,12.87
2022-12-15T00:06:13.417Z,14.50
2022-12-15T00:09:00.413Z,13.17
2022-12-15T00:11:46.552Z,13.30
2022-12-15T00:14:34.205Z,13.17
2022-12-15T00:17:20.210Z,13.80
2022-12-15T00:20:06.118Z,13.57
2022-12-15T00:22:52.105Z,11.67
2022-12-15T00:25:38.521Z,12.30
2022-12-15T00:28:24.412Z,13.80
2022-12-15T00:31:11.877Z,13.33
2022-12-15T00:33:57.679Z,13.13
2022-12-15T00:36:43.830Z,13.50
2022-12-15T00:39:12.046Z,13.60
2022-12-15T00:41:40.485Z,14.23
2022-12-15T00:44:08.754Z,13.43
2022-12-15T00:46:55.796Z,14.53
2022-12-15T00:49:42.595Z,14.20
2022-12-15T00:52:29.437Z,14.13
2022-12-15T00:55:16.425Z,13.10
2022-12-15T00:58:03.645Z,14.23
2022-12-15T01:00:50.778Z,14.77
2022-12-15T01:03:41.484Z,14.30
2022-12-15T01:06:31.253Z,14.50
2022-12-15T01:09:17.262Z,14.03
2022-12-15T01:12:04.857Z,13.13
2022-12-15T01:14:51.873Z,14.23
2022-12-15T01:17:38.008Z,13.00
2022-12-15T01:20:18.649Z,13.27
2022-12-15T01:22:48.640Z,14.67
2022-12-15T01:25:19.257Z,14.50
2022-12-15T01:27:48.184Z,13.50
2022-12-15T01:30:19.682Z,14.93
2022-12-15T01:32:48.115Z,14.80
2022-12-15T01:35:19.122Z,13.43
2022-12-15T01:37:50.199Z,15.53
2022-12-15T01:40:39.437Z,14.50
2022-12-15T01:43:14.944Z,15.53
2022-12-15T01:45:57.591Z,13.90
2022-12-15T01:48:34.363Z,14.13
2022-12-15T01:51:20.804Z,14.17
2022-12-15T01:53:55.203Z,15.00
2022-12-15T01:56:32.540Z,14.47
2022-12-15T01:59:11.647Z,15.30
2022-12-15T02:01:40.435Z,15.10
2022-12-15T02:04:12.676Z,15.00
2022-12-15T02:06:42.314Z,15.10
2022-12-15T02:09:10.969Z,14.93
2022-12-15T02:11:56.422Z,15.23
2022-12-15T02:14:45.658Z,14.47
2022-12-15T02:17:29.904Z,14.77
2022-12-15T02:20:47.700Z,14.83
2022-12-15T02:24:13.271Z,15.37
2022-12-15T02:27:44.605Z,14.90
2022-12-15T02:30:30.566Z,15.70
2022-12-15T02:33:09.349Z,15.23
2022-12-15T02:35:57.804Z,15.93
2022-12-15T02:38:32.741Z,15.40
2022-12-15T02:41:03.350Z,15.37
2022-12-15T02:43:38.894Z,38.63
2022-12-15T02:46:25.694Z,27.37
2022-12-15T02:49:08.353Z,17.90
2022-12-15T02:51:54.415Z,15.03
2022-12-15T02:55:00.422Z,14.97
2022-12-15T02:57:45.588Z,14.33
2022-12-15T03:00:17.000Z,15.63
2022-12-15T03:02:53.265Z,14.77
2022-12-15T03:05:23.786Z,15.40
2022-12-15T03:07:54.640Z,16.20
2022-12-15T03:10:26.531Z,15.60
2022-12-15T03:12:55.580Z,15.20
2022-12-15T03:15:23.997Z,14.93
2022-12-15T03:17:53.539Z,15.20
2022-12-15T03:20:21.886Z,14.87
2022-12-15T03:22:50.075Z,15.20
2022-12-15T03:25:18.413Z,15.70
2022-12-15T03:27:47.518Z,15.30
2022-12-15T03:30:16.519Z,13.90
2022-12-15T03:32:44.662Z,14.83
2022-12-15T03:35:15.320Z,15.03
2022-12-15T03:37:44.748Z,14.07
2022-12-15T03:40:15.369Z,15.50
2022-12-15T03:42:52.692Z,14.03
2022-12-15T03:45:24.744Z,14.27
2022-12-15T03:47:54.790Z,14.03
2022-12-15T03:50:29.960Z,13.63
2022-12-15T03:53:01.284Z,13.87
2022-12-15T03:55:31.664Z,13.60
2022-12-15T03:58:00.468Z,14.80
2022-12-15T04:00:30.719Z,14.03
2022-12-15T04:02:59.680Z,14.47
2022-12-15T04:05:32.441Z,14.37
2022-12-15T04:08:03.048Z,14.33
2022-12-15T04:10:35.241Z,15.20
2022-12-15T04:13:07.095Z,14.10
2022-12-15T04:15:36.698Z,14.37
2022-12-15T04:18:07.867Z,14.77
2022-12-15T04:20:37.631Z,14.77
2022-12-15T04:23:07.893Z,14.53
2022-12-15T04:25:55.111Z,15.93
2022-12-15T04:28:41.380Z,14.87
2022-12-15T04:31:30.858Z,14.33
2022-12-15T04:34:20.897Z,13.80
2022-12-15T04:37:12.651Z,14.03
2022-12-15T04:40:02.576Z,13.47
2022-12-15T04:42:51.943Z,13.67
2022-12-15T04:45:41.418Z,14.23
2022-12-15T04:48:27.694Z,14.47
2022-12-15T04:51:14.012Z,13.13
2022-12-15T04:54:03.722Z,12.93
2022-12-15T04:56:50.956Z,14.20
2022-12-15T04:59:37.851Z,13.97
2022-12-15T05:02:23.904Z,13.60
2022-12-15T05:05:10.172Z,13.67
2022-12-15T05:07:56.149Z,12.70
2022-12-15T05:10:43.716Z,12.47
2022-12-15T05:13:29.997Z,12.40
2022-12-15T05:16:16.872Z,13.70
2022-12-15T05:19:02.568Z,13.77
2022-12-15T05:21:49.020Z,13.23
2022-12-15T05:24:34.684Z,14.07
2022-12-15T05:27:21.835Z,13.43
2022-12-15T05:30:07.554Z,15.07
2022-12-15T05:32:36.035Z,13.63
2022-12-15T05:35:05.446Z,13.90
2022-12-15T05:37:33.793Z,15.23
2022-12-15T05:40:02.004Z,15.77
2022-12-15T05:42:31.832Z,16.03
2022-12-15T05:44:59.969Z,15.10
2022-12-15T05:47:28.194Z,14.13
2022-12-15T05:49:56.673Z,14.77
2022-12-15T05:52:24.857Z,14.33
2022-12-15T05:54:53.065Z,14.20
2022-12-15T05:57:22.378Z,14.43
2022-12-15T05:59:51.814Z,20.97
2022-12-15T06:02:20.009Z,15.80
2022-12-15T06:04:48.339Z,14.80
2022-12-15T06:07:16.880Z,15.10
2022-12-15T06:09:45.145Z,15.53
2022-12-15T06:12:13.901Z,14.73
2022-12-15T06:14:42.572Z,15.20
2022-12-15T06:17:12.076Z,15.17
2022-12-15T06:19:41.358Z,14.73
2022-12-15T06:22:10.513Z,14.70
2022-12-15T06:24:39.815Z,14.80
2022-12-15T06:27:09.244Z,13.57
2022-12-15T06:29:37.380Z,14.43
2022-12-15T06:32:06.083Z,15.57
2022-12-15T06:34:35.745Z,14.63
2022-12-15T06:37:04.513Z,14.63
2022-12-15T06:39:32.820Z,15.20
2022-12-15T06:42:01.546Z,15.47
2022-12-15T06:44:29.744Z,17.13
2022-12-15T06:46:58.507Z,16.23
2022-12-15T06:49:26.649Z,16.37
2022-12-15T06:51:56.751Z,15.43
2022-12-15T06:54:24.947Z,15.00
2022-12-15T06:56:53.471Z,14.03
2022-12-15T06:59:22.798Z,13.47
2022-12-15T07:01:51.263Z,14.97
2022-12-15T07:04:20.656Z,15.83
2022-12-15T07:06:49.572Z,14.13
2022-12-15T07:09:19.284Z,15.43
2022-12-15T07:11:50.326Z,14.53
2022-12-15T07:14:18.813Z,14.70
2022-12-15T07:16:48.467Z,15.20
2022-12-15T07:19:16.748Z,15.87
2022-12-15T07:21:45.568Z,15.47
2022-12-15T07:24:14.773Z,14.97
2022-12-15T07:26:46.100Z,15.03
2022-12-15T07:29:22.988Z,17.00
2022-12-15T07:31:51.994Z,18.70
2022-12-15T07:34:20.456Z,14.93
2022-12-15T07:36:52.504Z,15.80
2022-12-15T07:39:21.257Z,15.33
2022-12-15T07:41:52.183Z,17.17
2022-12-15T07:44:20.829Z,17.07
2022-12-15T07:46:49.518Z,16.13
2022-12-15T07:49:18.513Z,16.07
2022-12-15T07:51:47.373Z,25.70
2022-12-15T07:54:16.442Z,17.20
2022-12-15T07:56:44.980Z,15.80
2022-12-15T07:59:21.757Z,16.00
2022-12-15T08:01:50.725Z,15.43
2022-12-15T08:04:19.626Z,16.40
2022-12-15T08:06:47.986Z,16.30
2022-12-15T08:09:16.890Z,15.27
2022-12-15T08:11:45.139Z,14.77
2022-12-15T08:14:17.589Z,15.53
2022-12-15T08:16:48.110Z,16.57
2022-12-15T08:19:19.070Z,16.03
2022-12-15T08:21:48.728Z,16.13
2022-12-15T08:24:19.361Z,17.50
2022-12-15T08:26:50.067Z,15.50
2022-12-15T08:32:09.058Z,17.17
2022-12-15T08:34:37.276Z,16.10
2022-12-15T08:37:05.936Z,16.23
2022-12-15T08:39:34.071Z,17.90
2022-12-15T08:42:03.658Z,16.63
2022-12-15T08:44:32.015Z,16.97
2022-12-15T08:47:00.302Z,16.67
2022-12-15T08:49:29.747Z,16.73
2022-12-15T08:51:58.028Z,17.50
2022-12-15T08:54:26.911Z,17.20
2022-12-15T08:56:55.219Z,17.07
2022-12-15T08:59:25.137Z,18.67
2022-12-15T09:01:53.813Z,17.23
2022-12-15T09:04:22.543Z,18.03
2022-12-15T09:06:52.277Z,17.13
2022-12-15T09:09:22.380Z,16.60
2022-12-15T09:11:51.000Z,16.57
2022-12-15T09:14:25.700Z,17.73
2022-12-15T09:16:58.296Z,17.77
2022-12-15T09:19:26.725Z,16.00
2022-12-15T09:21:56.708Z,17.90
2022-12-15T09:24:34.405Z,16.77
2022-12-15T09:27:04.808Z,20.83
2022-12-15T09:29:34.244Z,19.90
2022-12-15T09:32:07.649Z,19.17
2022-12-15T09:34:38.729Z,18.27
2022-12-15T09:37:08.627Z,18.80
2022-12-15T09:39:38.285Z,18.37
2022-12-15T09:42:20.435Z,17.60
2022-12-15T09:44:50.675Z,17.23
2022-12-15T09:47:27.087Z,18.37
2022-12-15T09:49:58.165Z,19.57
2022-12-15T09:52:33.399Z,19.73
2022-12-15T09:55:02.919Z,17.77
2022-12-15T09:57:43.093Z,20.20
2022-12-15T10:00:22.361Z,18.77
2022-12-15T10:03:27.564Z,17.70
2022-12-15T10:06:18.102Z,17.83
2022-12-15T10:08:57.263Z,19.70
2022-12-15T10:14:43.373Z,18.13
2022-12-15T10:17:24.846Z,17.53
2022-12-15T10:20:02.288Z,19.90
2022-12-15T10:22:36.978Z,19.03
2022-12-15T10:25:23.510Z,19.17
2022-12-15T10:28:43.456Z,18.83
2022-12-15T10:31:25.330Z,19.07
2022-12-15T10:34:06.905Z,19.10
2022-12-15T10:36:35.981Z,17.97
2022-12-15T10:39:04.303Z,19.00
2022-12-15T10:41:34.841Z,19.77
2022-12-15T10:44:03.552Z,18.60
2022-12-15T10:46:32.793Z,19.23
2022-12-15T10:49:25.013Z,18.40
2022-12-15T10:51:57.746Z,19.20
2022-12-15T10:54:33.003Z,20.13
2022-12-15T11:37:20.831Z,20.13
2022-12-15T11:40:13.003Z,19.70
2022-12-15T11:43:01.992Z,19.83
2022-12-15T11:45:48.043Z,19.87
2022-12-15T11:48:21.861Z,20.00
2022-12-15T11:51:00.316Z,20.03
2022-12-15T11:54:00.860Z,19.57
2022-12-15T11:56:36.483Z,19.10
2022-12-15T11:59:46.750Z,19.87
2022-12-15T12:02:51.937Z,19.40
2022-12-15T12:05:42.457Z,18.57
2022-12-15T12:08:34.882Z,20.13
2022-12-15T12:11:14.036Z,20.60
2022-12-15T12:14:05.327Z,19.47
2022-12-15T12:16:49.486Z,19.20
2022-12-15T12:19:24.850Z,20.30
2022-12-15T12:22:03.016Z,19.87
2022-12-15T12:24:38.851Z,20.50
2022-12-15T12:27:40.313Z,18.60
2022-12-15T12:30:17.413Z,18.57
2022-12-15T12:33:01.351Z,19.07
2022-12-15T12:35:39.040Z,19.97
2022-12-15T12:38:32.642Z,18.67
2022-12-15T12:41:08.409Z,19.43
2022-12-15T12:43:44.377Z,19.37
2022-12-15T12:46:26.435Z,18.23
2022-12-15T12:49:00.312Z,19.20
2022-12-15T12:51:34.526Z,18.30
2022-12-15T12:54:04.027Z,19.67
2022-12-15T12:56:41.264Z,18.73
2022-12-15T12:59:39.518Z,19.83
2022-12-15T13:02:50.523Z,20.03
2022-12-15T13:05:32.898Z,20.43
2022-12-15T13:08:53.023Z,19.37
2022-12-15T13:12:14.852Z,19.33
2022-12-15T13:14:51.819Z,19.13
2022-12-15T13:17:40.135Z,18.73
2022-12-15T13:20:25.867Z,19.30
2022-12-15T13:22:57.380Z,19.47
2022-12-15T13:25:55.508Z,18.37
2022-12-15T13:28:57.733Z,18.17
2022-12-15T13:31:49.212Z,17.83
2022-12-15T13:34:25.583Z,18.50
2022-12-15T13:37:02.352Z,17.87
2022-12-15T13:39:37.347Z,17.87
2022-12-15T13:42:47.261Z,18.60
2022-12-15T13:45:53.559Z,18.23
2022-12-15T13:48:33.715Z,17.63
2022-12-15T13:51:17.724Z,17.97
2022-12-15T13:53:54.295Z,17.83
2022-12-15T13:56:47.018Z,17.00
2022-12-15T13:59:30.379Z,18.07
2022-12-15T14:01:59.332Z,17.10
2022-12-15T14:04:28.404Z,18.03
2022-12-15T14:07:02.706Z,17.83
2022-12-15T14:09:37.716Z,17.67
2022-12-15T14:12:14.443Z,21.07
2022-12-15T14:14:49.033Z,19.40
2022-12-15T14:17:20.475Z,19.97
2022-12-15T14:19:52.263Z,19.80
2022-12-15T14:22:29.494Z,17.67
2022-12-15T14:25:13.849Z,17.80
2022-12-15T14:27:42.101Z,17.93
2022-12-15T14:30:29.695Z,18.63
2022-12-15T14:33:02.898Z,16.73
2022-12-15T14:35:37.758Z,18.70
2022-12-15T14:38:13.885Z,18.17
2022-12-15T14:40:47.267Z,17.23
2022-12-15T14:43:23.912Z,18.53
2022-12-15T14:46:06.049Z,17.00
2022-12-15T14:48:41.446Z,17.93
2022-12-15T14:51:14.987Z,19.80
2022-12-15T14:53:50.055Z,17.70
2022-12-15T14:56:32.927Z,17.40
2022-12-15T14:59:04.899Z,16.83
2022-12-15T15:01:40.351Z,16.97
2022-12-15T15:03:11.539Z,18.93
2022-12-15T15:04:26.306Z,18.43
2022-12-15T15:06:58.627Z,18.40
2022-12-15T17:42:37.205Z,14.43
2022-12-15T17:45:25.250Z,15.67
2022-12-15T17:47:53.852Z,14.97
2022-12-15T17:50:22.028Z,15.57
2022-12-15T17:52:50.249Z,15.77
2022-12-15T17:55:22.210Z,15.37
2022-12-15T17:57:51.793Z,15.23
2022-12-15T18:00:28.209Z,15.10
2022-12-15T18:02:58.064Z,14.83
2022-12-15T18:05:30.267Z,15.20
2022-12-15T18:08:02.424Z,15.60
2022-12-15T18:10:35.079Z,16.50
2022-12-15T18:13:18.444Z,14.63
2022-12-15T18:15:48.962Z,15.47
2022-12-15T18:18:18.955Z,15.37
2022-12-15T18:20:48.483Z,15.93
2022-12-15T18:23:22.093Z,15.43
2022-12-15T18:25:52.635Z,14.70
2022-12-15T18:28:26.219Z,14.97
2022-12-15T18:30:57.194Z,15.03
2022-12-15T18:33:27.156Z,15.47
2022-12-15T18:35:56.346Z,14.20
2022-12-15T18:38:27.072Z,14.63
2022-12-15T18:40:59.139Z,15.00
2022-12-15T18:43:32.173Z,14.77
2022-12-15T18:46:01.972Z,14.83
2022-12-15T18:48:35.044Z,15.17
2022-12-15T18:51:16.789Z,14.90
2022-12-15T18:53:48.758Z,16.30
2022-12-15T18:56:21.789Z,15.53
2022-12-15T18:58:51.765Z,15.53
2022-12-15T19:01:24.298Z,16.17
2022-12-15T19:03:52.917Z,15.37
2022-12-15T19:06:34.808Z,15.00
2022-12-15T19:09:06.256Z,14.97
2022-12-15T19:11:35.155Z,15.00
2022-12-15T19:14:34.196Z,17.80
2022-12-15T19:17:17.011Z,16.43
2022-12-15T19:20:03.145Z,15.13
2022-12-15T19:22:31.969Z,15.80
2022-12-15T19:25:02.240Z,16.20
2022-12-15T19:27:30.739Z,15.43
2022-12-15T19:30:00.749Z,16.43
2022-12-15T19:32:29.233Z,15.87
2022-12-15T19:34:57.704Z,16.37
2022-12-15T19:37:31.523Z,17.23
2022-12-15T19:40:02.693Z,15.73
2022-12-15T19:42:34.953Z,16.20
2022-12-15T19:45:18.266Z,21.43
2022-12-15T19:47:47.267Z,16.90
2022-12-15T19:50:18.047Z,16.37
2022-12-15T19:52:49.874Z,15.83
2022-12-15T19:55:25.150Z,17.60
2022-12-15T19:57:55.174Z,16.23
2022-12-15T20:00:28.417Z,16.37
2022-12-15T20:02:59.079Z,18.33
2022-12-15T20:05:28.370Z,17.47
2022-12-15T20:07:57.307Z,18.33
2022-12-15T20:10:32.180Z,16.90
2022-12-15T20:13:03.523Z,17.17
2022-12-15T20:15:34.885Z,17.73
2022-12-15T20:18:03.358Z,16.73
2022-12-15T20:20:33.127Z,17.37
2022-12-15T20:23:11.200Z,17.43
2022-12-15T20:25:41.434Z,17.17
2022-12-15T20:28:21.226Z,18.87
2022-12-15T20:30:52.602Z,19.13
2022-12-15T20:33:21.346Z,19.43
2022-12-15T20:35:51.649Z,17.00
2022-12-15T20:38:31.614Z,17.57
2022-12-15T20:41:02.057Z,17.43
2022-12-15T20:43:34.433Z,17.43
2022-12-15T20:46:09.626Z,16.40
2022-12-15T20:48:38.775Z,17.00
2022-12-15T20:51:13.515Z,16.63
2022-12-15T20:53:43.829Z,17.80
2022-12-15T20:56:12.192Z,17.97
2022-12-15T20:58:40.793Z,16.83
2022-12-15T21:01:27.197Z,16.77
2022-12-15T21:03:57.833Z,16.93
2022-12-15T21:06:30.836Z,16.50
2022-12-15T21:09:03.448Z,16.77
2022-12-15T21:11:34.224Z,24.77
2022-12-15T21:14:04.897Z,17.97
2022-12-15T21:16:38.050Z,16.37
2022-12-15T21:19:23.172Z,15.60
2022-12-15T21:21:56.046Z,19.10
2022-12-15T21:24:29.065Z,29.13
2022-12-15T21:26:57.630Z,22.77
2022-12-15T21:29:29.266Z,18.10
2022-12-15T21:31:58.923Z,19.37
2022-12-15T21:34:27.059Z,19.30
2022-12-15T21:36:55.702Z,17.97
2022-12-15T21:39:29.785Z,16.93
2022-12-15T21:42:01.773Z,16.73
2022-12-15T21:44:30.676Z,16.70
2022-12-15T21:47:00.765Z,19.63
2022-12-15T21:49:28.175Z,17.50
2022-12-15T21:52:01.334Z,17.10
2022-12-15T21:54:36.597Z,17.23
2022-12-15T21:57:05.769Z,20.03
2022-12-15T21:59:34.437Z,17.00
2022-12-15T22:02:25.993Z,15.67
2022-12-15T22:04:55.221Z,15.87
2022-12-15T22:07:23.703Z,16.90
2022-12-15T22:09:54.440Z,18.00
2022-12-15T22:12:24.955Z,18.27
2022-12-15T22:14:54.156Z,16.50
2022-12-15T22:17:25.286Z,20.50
2022-12-15T22:19:54.633Z,14.53
2022-12-15T22:22:26.987Z,15.37
2022-12-15T22:24:59.395Z,14.80
2022-12-15T22:27:32.116Z,15.00
2022-12-15T22:30:00.657Z,15.20
2022-12-15T22:32:30.693Z,14.63
2022-12-15T22:34:58.878Z,15.87
2022-12-15T22:37:27.145Z,14.43
2022-12-15T22:39:55.303Z,14.17
2022-12-15T22:42:23.527Z,16.63
2022-12-15T22:44:51.676Z,15.70
2022-12-15T22:47:19.838Z,15.03
2022-12-15T22:49:49.387Z,14.07
2022-12-15T22:52:20.761Z,14.53
2022-12-15T22:54:49.885Z,14.20
2022-12-15T22:57:24.393Z,14.07
2022-12-15T23:00:00.764Z,13.67
2022-12-15T23:02:32.667Z,13.33
2022-12-15T23:05:02.826Z,16.57
2022-12-15T23:07:30.986Z,13.97
2022-12-15T23:10:13.007Z,13.50
2022-12-15T23:12:41.915Z,13.23
2022-12-15T23:15:28.394Z,13.00
2022-12-15T23:17:56.925Z,13.20
2022-12-15T23:20:27.101Z,13.17
2022-12-15T23:22:55.742Z,13.37
2022-12-15T23:25:24.178Z,13.53
2022-12-15T23:27:52.685Z,13.07
2022-12-15T23:30:21.675Z,12.57
2022-12-15T23:32:49.986Z,11.73
2022-12-15T23:35:23.594Z,19.30
2022-12-15T23:37:53.091Z,13.47
2022-12-15T23:40:22.576Z,12.50
2022-12-15T23:42:52.201Z,13.30
2022-12-15T23:45:20.700Z,12.03
2022-12-15T23:47:48.931Z,13.17
2022-12-15T23:50:18.395Z,13.37
2022-12-15T23:52:50.290Z,14.27
2022-12-15T23:55:21.271Z,15.83
2022-12-15T23:57:49.767Z,14.30
